sensor_id;sensor_type;location;lat;lon;timestamp;P1;durP1;ratioP1;P2;durP2;ratioP2
2684;SDS011;1352;48.446;9.156;2022-12-07T00:00:30;13.07;;;9.93;;
2684;SDS011;1352;48.446;9.156;2022-12-07T00:02:57;12.60;;;10.00;;
2684;SDS011;1352;48.446;9.156;2022-12-07T00:05:25;13.97;;;10.23;;
2684;SDS011;1352;48.446;9.156;2022-12-07T00:08:02;11.43;;;9.90;;
2684;SDS011;1352;48.446;9.156;2022-12-07T00:10:36;12.50;;;10.07;;
2684;SDS011;1352;48.446;9.156;2022-12-07T00:13:06;16.07;;;11.70;;
2684;SDS011;1352;48.446;9.156;2022-12-07T00:15:36;14.40;;;9.73;;
2684;SDS011;1352;48.446;9.156;2022-12-07T00:18:07;14.40;;;10.40;;
2684;SDS011;1352;48.446;9.156;2022-12-07T00:20:38;22.87;;;11.30;;
2684;SDS011;1352;48.446;9.156;2022-12-07T00:23:09;15.00;;;10.00;;
2684;SDS011;1352;48.446;9.156;2022-12-07T00:25:37;12.60;;;9.60;;
2684;SDS011;1352;48.446;9.156;2022-12-07T00:28:07;11.27;;;9.03;;
2684;SDS011;1352;48.446;9.156;2022-12-07T00:30:36;13.23;;;10.07;;
2684;SDS011;1352;48.446;9.156;2022-12-07T00:33:03;17.20;;;10.50;;
2684;SDS011;1352;48.446;9.156;2022-12-07T00:35:33;15.13;;;11.40;;
2684;SDS011;1352;48.446;9.156;2022-12-07T00:38:00;13.97;;;9.80;;
2684;SDS011;1352;48.446;9.156;2022-12-07T00:40:29;12.87;;;9.23;;
2684;SDS011;1352;48.446;9.156;2022-12-07T00:42:57;13.30;;;10.20;;
2684;SDS011;1352;48.446;9.156;2022-12-07T00:45:24;14.23;;;10.00;;
2684;SDS011;1352;48.446;9.156;2022-12-07T00:47:53;12.63;;;9.80;;
2684;SDS011;1352;48.446;9.156;2022-12-07T00:50:22;13.33;;;10.77;;
2684;SDS011;1352;48.446;9.156;2022-12-07T00:53:01;11.53;;;9.67;;
2684;SDS011;1352;48.446;9.156;2022-12-07T00:55:33;11.83;;;8.93;;
2684;SDS011;1352;48.446;9.156;2022-12-07T00:58:01;13.93;;;9.50;;
2684;SDS011;1352;48.446;9.156;2022-12-07T01:00:28;12.80;;;9.67;;
2684;SDS011;1352;48.446;9.156;2022-12-07T01:02:56;10.97;;;7.83;;
2684;SDS011;1352;48.446;9.156;2022-12-07T01:05:24;14.33;;;8.60;;
2684;SDS011;1352;48.446;9.156;2022-12-07T01:07:51;10.63;;;8.97;;
2684;SDS011;1352;48.446;9.156;2022-12-07T01:10:20;9.60;;;8.40;;
2684;SDS011;1352;48.446;9.156;2022-12-07T01:12:51;12.03;;;9.80;;
2684;SDS011;1352;48.446;9.156;2022-12-07T01:15:22;8.37;;;7.43;;
2684;SDS011;1352;48.446;9.156;2022-12-07T01:17:53;10.10;;;8.27;;
2684;SDS011;1352;48.446;9.156;2022-12-07T01:20:21;11.47;;;9.10;;
2684;SDS011;1352;48.446;9.156;2022-12-07T01:22:51;11.20;;;8.33;;
2684;SDS011;1352;48.446;9.156;2022-12-07T01:25:23;9.53;;;8.63;;
2684;SDS011;1352;48.446;9.156;2022-12-07T01:27:54;9.90;;;8.83;;
2684;SDS011;1352;48.446;9.156;2022-12-07T01:30:22;9.10;;;8.17;;
2684;SDS011;1352;48.446;9.156;2022-12-07T01:32:50;9.60;;;8.50;;
2684;SDS011;1352;48.446;9.156;2022-12-07T01:35:17;9.63;;;7.63;;
2684;SDS011;1352;48.446;9.156;2022-12-07T01:37:44;8.20;;;7.33;;
2684;SDS011;1352;48.446;9.156;2022-12-07T01:40:11;8.60;;;7.10;;
2684;SDS011;1352;48.446;9.156;2022-12-07T01:42:39;9.03;;;8.13;;
2684;SDS011;1352;48.446;9.156;2022-12-07T01:48:12;8.90;;;7.80;;
2684;SDS011;1352;48.446;9.156;2022-12-07T01:50:43;10.40;;;8.47;;
2684;SDS011;1352;48.446;9.156;2022-12-07T01:53:11;12.90;;;7.90;;
2684;SDS011;1352;48.446;9.156;2022-12-07T01:55:41;10.43;;;8.40;;
2684;SDS011;1352;48.446;9.156;2022-12-07T01:58:11;9.83;;;8.20;;
2684;SDS011;1352;48.446;9.156;2022-12-07T02:00:40;11.90;;;8.40;;
2684;SDS011;1352;48.446;9.156;2022-12-07T02:03:16;8.07;;;7.27;;
2684;SDS011;1352;48.446;9.156;2022-12-07T02:05:53;9.83;;;7.37;;
2684;SDS011;1352;48.446;9.156;2022-12-07T02:08:24;11.10;;;8.80;;
2684;SDS011;1352;48.446;9.156;2022-12-07T02:10:53;11.23;;;8.70;;
2684;SDS011;1352;48.446;9.156;2022-12-07T02:13:24;10.17;;;7.97;;
2684;SDS011;1352;48.446;9.156;2022-12-07T02:16:08;9.67;;;7.67;;
2684;SDS011;1352;48.446;9.156;2022-12-07T02:18:49;10.30;;;8.00;;
2684;SDS011;1352;48.446;9.156;2022-12-07T02:21:31;11.53;;;8.40;;
2684;SDS011;1352;48.446;9.156;2022-12-07T02:24:15;13.37;;;7.87;;
2684;SDS011;1352;48.446;9.156;2022-12-07T02:29:58;11.73;;;8.10;;
2684;SDS011;1352;48.446;9.156;2022-12-07T02:32:30;9.10;;;8.20;;
2684;SDS011;1352;48.446;9.156;2022-12-07T02:35:10;11.03;;;9.43;;
2684;SDS011;1352;48.446;9.156;2022-12-07T02:37:46;11.73;;;8.53;;
2684;SDS011;1352;48.446;9.156;2022-12-07T02:40:22;10.17;;;9.03;;
2684;SDS011;1352;48.446;9.156;2022-12-07T02:42:55;11.57;;;8.33;;
2684;SDS011;1352;48.446;9.156;2022-12-07T02:45:32;8.70;;;7.80;;
2684;SDS011;1352;48.446;9.156;2022-12-07T02:48:06;11.10;;;9.20;;
2684;SDS011;1352;48.446;9.156;2022-12-07T02:50:35;11.50;;;8.33;;
2684;SDS011;1352;48.446;9.156;2022-12-07T02:53:02;9.17;;;8.23;;
2684;SDS011;1352;48.446;9.156;2022-12-07T02:55:33;11.90;;;9.47;;
2684;SDS011;1352;48.446;9.156;2022-12-07T02:58:15;12.03;;;8.27;;
2684;SDS011;1352;48.446;9.156;2022-12-07T03:00:58;10.13;;;8.10;;
2684;SDS011;1352;48.446;9.156;2022-12-07T03:03:35;8.87;;;7.70;;
2684;SDS011;1352;48.446;9.156;2022-12-07T03:06:09;10.20;;;8.50;;
2684;SDS011;1352;48.446;9.156;2022-12-07T03:08:47;10.13;;;7.83;;
2684;SDS011;1352;48.446;9.156;2022-12-07T03:11:21;11.13;;;7.97;;
2684;SDS011;1352;48.446;9.156;2022-12-07T03:13:55;12.00;;;7.70;;
2684;SDS011;1352;48.446;9.156;2022-12-07T03:16:32;11.17;;;8.60;;
2684;SDS011;1352;48.446;9.156;2022-12-07T03:19:08;9.93;;;8.37;;
2684;SDS011;1352;48.446;9.156;2022-12-07T03:21:38;13.10;;;9.13;;
2684;SDS011;1352;48.446;9.156;2022-12-07T03:24:12;11.90;;;9.30;;
2684;SDS011;1352;48.446;9.156;2022-12-07T03:26:46;11.13;;;8.40;;
2684;SDS011;1352;48.446;9.156;2022-12-07T03:29:20;12.40;;;9.77;;
2684;SDS011;1352;48.446;9.156;2022-12-07T03:31:54;13.13;;;10.20;;
2684;SDS011;1352;48.446;9.156;2022-12-07T03:34:29;11.70;;;8.93;;
2684;SDS011;1352;48.446;9.156;2022-12-07T03:37:07;12.03;;;10.10;;
2684;SDS011;1352;48.446;9.156;2022-12-07T03:39:41;10.50;;;8.30;;
2684;SDS011;1352;48.446;9.156;2022-12-07T03:42:14;12.83;;;8.60;;
2684;SDS011;1352;48.446;9.156;2022-12-07T03:44:45;10.70;;;8.40;;
2684;SDS011;1352;48.446;9.156;2022-12-07T03:47:20;13.13;;;9.93;;
2684;SDS011;1352;48.446;9.156;2022-12-07T03:49:55;14.13;;;10.50;;
2684;SDS011;1352;48.446;9.156;2022-12-07T03:52:28;17.03;;;11.47;;
2684;SDS011;1352;48.446;9.156;2022-12-07T03:55:05;14.70;;;11.23;;
2684;SDS011;1352;48.446;9.156;2022-12-07T03:57:38;15.33;;;10.93;;
2684;SDS011;1352;48.446;9.156;2022-12-07T04:00:09;13.90;;;10.50;;
2684;SDS011;1352;48.446;9.156;2022-12-07T04:02:40;16.83;;;12.10;;
2684;SDS011;1352;48.446;9.156;2022-12-07T04:05:08;15.57;;;11.30;;
2684;SDS011;1352;48.446;9.156;2022-12-07T04:07:36;12.60;;;9.53;;
2684;SDS011;1352;48.446;9.156;2022-12-07T04:10:04;13.87;;;10.13;;
2684;SDS011;1352;48.446;9.156;2022-12-07T04:12:36;16.60;;;11.10;;
2684;SDS011;1352;48.446;9.156;2022-12-07T04:15:07;14.17;;;10.23;;
2684;SDS011;1352;48.446;9.156;2022-12-07T04:17:35;12.50;;;8.93;;
2684;SDS011;1352;48.446;9.156;2022-12-07T04:20:06;15.67;;;9.93;;
2684;SDS011;1352;48.446;9.156;2022-12-07T04:22:35;11.70;;;8.93;;
2684;SDS011;1352;48.446;9.156;2022-12-07T04:25:08;14.13;;;9.43;;
2684;SDS011;1352;48.446;9.156;2022-12-07T04:27:38;11.17;;;8.47;;
2684;SDS011;1352;48.446;9.156;2022-12-07T04:30:07;10.13;;;7.97;;
2684;SDS011;1352;48.446;9.156;2022-12-07T04:32:35;12.20;;;8.60;;
2684;SDS011;1352;48.446;9.156;2022-12-07T04:35:08;13.10;;;8.83;;
2684;SDS011;1352;48.446;9.156;2022-12-07T04:37:37;10.67;;;8.10;;
2684;SDS011;1352;48.446;9.156;2022-12-07T04:40:06;9.90;;;7.80;;
2684;SDS011;1352;48.446;9.156;2022-12-07T04:42:39;13.03;;;9.00;;
2684;SDS011;1352;48.446;9.156;2022-12-07T04:45:10;10.00;;;6.90;;
2684;SDS011;1352;48.446;9.156;2022-12-07T04:47:38;10.77;;;7.23;;
2684;SDS011;1352;48.446;9.156;2022-12-07T04:50:11;15.37;;;8.50;;
2684;SDS011;1352;48.446;9.156;2022-12-07T04:52:39;8.57;;;6.83;;
2684;SDS011;1352;48.446;9.156;2022-12-07T04:55:07;7.97;;;5.97;;
2684;SDS011;1352;48.446;9.156;2022-12-07T04:57:35;8.20;;;5.50;;
2684;SDS011;1352;48.446;9.156;2022-12-07T05:00:03;6.87;;;5.50;;
2684;SDS011;1352;48.446;9.156;2022-12-07T05:02:39;8.50;;;6.50;;
2684;SDS011;1352;48.446;9.156;2022-12-07T05:05:07;8.90;;;6.40;;
2684;SDS011;1352;48.446;9.156;2022-12-07T05:07:39;6.57;;;5.90;;
2684;SDS011;1352;48.446;9.156;2022-12-07T05:10:20;6.67;;;5.40;;
2684;SDS011;1352;48.446;9.156;2022-12-07T05:12:49;8.87;;;6.63;;
2684;SDS011;1352;48.446;9.156;2022-12-07T05:15:20;8.67;;;5.80;;
2684;SDS011;1352;48.446;9.156;2022-12-07T05:17:54;6.10;;;4.93;;
2684;SDS011;1352;48.446;9.156;2022-12-07T05:20:23;8.53;;;5.67;;
2684;SDS011;1352;48.446;9.156;2022-12-07T05:22:53;5.63;;;4.93;;
2684;SDS011;1352;48.446;9.156;2022-12-07T05:25:29;5.70;;;5.07;;
2684;SDS011;1352;48.446;9.156;2022-12-07T05:28:15;7.00;;;5.00;;
2684;SDS011;1352;48.446;9.156;2022-12-07T05:30:46;6.60;;;4.97;;
2684;SDS011;1352;48.446;9.156;2022-12-07T05:33:33;5.70;;;4.80;;
2684;SDS011;1352;48.446;9.156;2022-12-07T05:36:10;5.33;;;4.67;;
2684;SDS011;1352;48.446;9.156;2022-12-07T05:38:41;4.97;;;4.17;;
2684;SDS011;1352;48.446;9.156;2022-12-07T05:41:09;5.37;;;4.23;;
2684;SDS011;1352;48.446;9.156;2022-12-07T05:43:58;6.60;;;4.53;;
2684;SDS011;1352;48.446;9.156;2022-12-07T05:46:28;5.40;;;4.53;;
2684;SDS011;1352;48.446;9.156;2022-12-07T05:48:55;5.50;;;4.10;;
2684;SDS011;1352;48.446;9.156;2022-12-07T05:51:23;7.77;;;4.93;;
2684;SDS011;1352;48.446;9.156;2022-12-07T05:53:52;4.63;;;4.00;;
2684;SDS011;1352;48.446;9.156;2022-12-07T05:56:30;9.10;;;6.70;;
2684;SDS011;1352;48.446;9.156;2022-12-07T05:59:18;4.73;;;3.80;;
2684;SDS011;1352;48.446;9.156;2022-12-07T06:01:54;8.30;;;4.67;;
2684;SDS011;1352;48.446;9.156;2022-12-07T06:04:23;8.53;;;5.20;;
2684;SDS011;1352;48.446;9.156;2022-12-07T06:06:54;5.97;;;5.23;;
2684;SDS011;1352;48.446;9.156;2022-12-07T06:09:28;5.77;;;3.93;;
2684;SDS011;1352;48.446;9.156;2022-12-07T06:11:57;4.03;;;3.40;;
2684;SDS011;1352;48.446;9.156;2022-12-07T06:14:45;6.43;;;4.47;;
2684;SDS011;1352;48.446;9.156;2022-12-07T06:17:24;6.33;;;4.80;;
2684;SDS011;1352;48.446;9.156;2022-12-07T06:20:05;5.73;;;4.80;;
2684;SDS011;1352;48.446;9.156;2022-12-07T06:22:51;6.20;;;5.20;;
2684;SDS011;1352;48.446;9.156;2022-12-07T06:25:27;7.30;;;6.10;;
2684;SDS011;1352;48.446;9.156;2022-12-07T06:27:55;6.63;;;5.50;;
2684;SDS011;1352;48.446;9.156;2022-12-07T06:30:23;8.70;;;5.60;;
2684;SDS011;1352;48.446;9.156;2022-12-07T06:32:50;5.27;;;4.53;;
2684;SDS011;1352;48.446;9.156;2022-12-07T06:35:24;6.10;;;5.50;;
2684;SDS011;1352;48.446;9.156;2022-12-07T06:37:52;6.73;;;5.63;;
2684;SDS011;1352;48.446;9.156;2022-12-07T06:40:19;4.90;;;4.17;;
2684;SDS011;1352;48.446;9.156;2022-12-07T06:42:50;5.73;;;4.30;;
2684;SDS011;1352;48.446;9.156;2022-12-07T06:45:28;5.20;;;4.70;;
2684;SDS011;1352;48.446;9.156;2022-12-07T06:47:57;5.73;;;5.23;;
2684;SDS011;1352;48.446;9.156;2022-12-07T06:50:37;4.80;;;4.40;;
2684;SDS011;1352;48.446;9.156;2022-12-07T06:53:07;5.20;;;4.40;;
2684;SDS011;1352;48.446;9.156;2022-12-07T06:55:39;5.20;;;4.23;;
2684;SDS011;1352;48.446;9.156;2022-12-07T06:58:08;4.77;;;4.20;;
2684;SDS011;1352;48.446;9.156;2022-12-07T07:00:35;4.77;;;4.30;;
2684;SDS011;1352;48.446;9.156;2022-12-07T07:03:06;4.80;;;3.90;;
2684;SDS011;1352;48.446;9.156;2022-12-07T07:05:33;4.90;;;4.40;;
2684;SDS011;1352;48.446;9.156;2022-12-07T07:08:01;4.47;;;4.07;;
2684;SDS011;1352;48.446;9.156;2022-12-07T07:10:28;4.77;;;3.77;;
2684;SDS011;1352;48.446;9.156;2022-12-07T07:12:55;8.80;;;7.33;;
2684;SDS011;1352;48.446;9.156;2022-12-07T07:15:24;4.53;;;4.13;;
2684;SDS011;1352;48.446;9.156;2022-12-07T07:17:52;4.93;;;4.53;;
2684;SDS011;1352;48.446;9.156;2022-12-07T07:20:19;5.10;;;4.70;;
2684;SDS011;1352;48.446;9.156;2022-12-07T07:22:47;6.57;;;5.97;;
2684;SDS011;1352;48.446;9.156;2022-12-07T07:25:15;4.93;;;4.40;;
2684;SDS011;1352;48.446;9.156;2022-12-07T07:27:42;5.67;;;5.23;;
2684;SDS011;1352;48.446;9.156;2022-12-07T07:30:10;5.50;;;4.80;;
2684;SDS011;1352;48.446;9.156;2022-12-07T07:32:39;6.87;;;6.17;;
2684;SDS011;1352;48.446;9.156;2022-12-07T07:35:06;9.17;;;7.47;;
2684;SDS011;1352;48.446;9.156;2022-12-07T07:37:33;11.60;;;9.07;;
2684;SDS011;1352;48.446;9.156;2022-12-07T07:40:00;11.47;;;8.67;;
2684;SDS011;1352;48.446;9.156;2022-12-07T07:42:28;12.57;;;9.90;;
2684;SDS011;1352;48.446;9.156;2022-12-07T07:44:55;14.40;;;12.13;;
2684;SDS011;1352;48.446;9.156;2022-12-07T07:47:22;12.80;;;10.83;;
2684;SDS011;1352;48.446;9.156;2022-12-07T07:49:51;11.50;;;9.60;;
2684;SDS011;1352;48.446;9.156;2022-12-07T07:52:18;9.27;;;8.37;;
2684;SDS011;1352;48.446;9.156;2022-12-07T07:54:45;8.80;;;7.90;;
2684;SDS011;1352;48.446;9.156;2022-12-07T07:57:12;11.17;;;9.00;;
2684;SDS011;1352;48.446;9.156;2022-12-07T07:59:39;15.33;;;11.20;;
2684;SDS011;1352;48.446;9.156;2022-12-07T08:02:07;17.00;;;11.43;;
2684;SDS011;1352;48.446;9.156;2022-12-07T08:04:39;12.93;;;10.27;;
2684;SDS011;1352;48.446;9.156;2022-12-07T08:07:08;14.60;;;10.10;;
2684;SDS011;1352;48.446;9.156;2022-12-07T08:09:36;4.93;;;4.43;;
2684;SDS011;1352;48.446;9.156;2022-12-07T08:12:03;5.10;;;4.00;;
2684;SDS011;1352;48.446;9.156;2022-12-07T08:14:31;6.57;;;5.93;;
2684;SDS011;1352;48.446;9.156;2022-12-07T08:17:02;6.53;;;4.23;;
2684;SDS011;1352;48.446;9.156;2022-12-07T08:19:30;4.90;;;4.10;;
2684;SDS011;1352;48.446;9.156;2022-12-07T08:21:57;6.97;;;4.50;;
2684;SDS011;1352;48.446;9.156;2022-12-07T08:24:34;4.33;;;3.93;;
2684;SDS011;1352;48.446;9.156;2022-12-07T08:27:02;6.23;;;5.53;;
2684;SDS011;1352;48.446;9.156;2022-12-07T08:29:39;19.40;;;12.70;;
2684;SDS011;1352;48.446;9.156;2022-12-07T08:32:12;11.27;;;10.10;;
2684;SDS011;1352;48.446;9.156;2022-12-07T08:34:40;12.10;;;9.93;;
2684;SDS011;1352;48.446;9.156;2022-12-07T08:37:10;11.77;;;10.57;;
2684;SDS011;1352;48.446;9.156;2022-12-07T08:39:48;10.50;;;9.40;;
2684;SDS011;1352;48.446;9.156;2022-12-07T08:42:16;10.40;;;9.10;;
2684;SDS011;1352;48.446;9.156;2022-12-07T08:44:43;12.03;;;9.90;;
2684;SDS011;1352;48.446;9.156;2022-12-07T08:47:10;11.67;;;9.43;;
2684;SDS011;1352;48.446;9.156;2022-12-07T08:49:41;9.93;;;8.93;;
2684;SDS011;1352;48.446;9.156;2022-12-07T08:52:17;11.27;;;8.37;;
2684;SDS011;1352;48.446;9.156;2022-12-07T08:54:50;9.40;;;7.87;;
2684;SDS011;1352;48.446;9.156;2022-12-07T08:57:18;9.37;;;6.97;;
2684;SDS011;1352;48.446;9.156;2022-12-07T08:59:45;9.77;;;7.50;;
2684;SDS011;1352;48.446;9.156;2022-12-07T09:02:12;9.30;;;7.50;;
2684;SDS011;1352;48.446;9.156;2022-12-07T09:04:40;12.03;;;9.40;;
2684;SDS011;1352;48.446;9.156;2022-12-07T09:07:14;12.10;;;9.93;;
2684;SDS011;1352;48.446;9.156;2022-12-07T09:09:47;11.03;;;9.40;;
2684;SDS011;1352;48.446;9.156;2022-12-07T09:12:47;11.30;;;9.90;;
2684;SDS011;1352;48.446;9.156;2022-12-07T09:15:28;11.60;;;10.30;;
2684;SDS011;1352;48.446;9.156;2022-12-07T09:18:01;12.53;;;10.33;;
2684;SDS011;1352;48.446;9.156;2022-12-07T09:20:29;11.90;;;10.60;;
2684;SDS011;1352;48.446;9.156;2022-12-07T09:22:56;14.67;;;12.17;;
2684;SDS011;1352;48.446;9.156;2022-12-07T09:25:28;12.43;;;10.40;;
2684;SDS011;1352;48.446;9.156;2022-12-07T09:28:06;14.40;;;10.37;;
2684;SDS011;1352;48.446;9.156;2022-12-07T09:30:36;13.30;;;9.97;;
2684;SDS011;1352;48.446;9.156;2022-12-07T09:33:18;11.27;;;8.77;;
2684;SDS011;1352;48.446;9.156;2022-12-07T09:35:45;10.07;;;8.80;;
2684;SDS011;1352;48.446;9.156;2022-12-07T09:38:13;13.43;;;9.53;;
2684;SDS011;1352;48.446;9.156;2022-12-07T09:40:41;7.90;;;6.93;;
2684;SDS011;1352;48.446;9.156;2022-12-07T09:43:14;8.07;;;7.23;;
2684;SDS011;1352;48.446;9.156;2022-12-07T09:45:48;9.57;;;7.47;;
2684;SDS011;1352;48.446;9.156;2022-12-07T09:48:25;9.27;;;7.20;;
2684;SDS011;1352;48.446;9.156;2022-12-07T09:51:02;8.30;;;6.70;;
2684;SDS011;1352;48.446;9.156;2022-12-07T09:53:40;9.70;;;6.87;;
2684;SDS011;1352;48.446;9.156;2022-12-07T09:56:12;7.90;;;6.37;;
2684;SDS011;1352;48.446;9.156;2022-12-07T09:58:43;9.23;;;6.80;;
2684;SDS011;1352;48.446;9.156;2022-12-07T10:01:18;7.30;;;6.60;;
2684;SDS011;1352;48.446;9.156;2022-12-07T10:04:09;8.90;;;6.07;;
2684;SDS011;1352;48.446;9.156;2022-12-07T10:06:44;7.47;;;5.90;;
2684;SDS011;1352;48.446;9.156;2022-12-07T10:09:18;6.17;;;5.20;;
2684;SDS011;1352;48.446;9.156;2022-12-07T10:12:01;9.77;;;6.87;;
2684;SDS011;1352;48.446;9.156;2022-12-07T10:14:36;8.30;;;6.07;;
2684;SDS011;1352;48.446;9.156;2022-12-07T10:17:27;7.67;;;5.80;;
2684;SDS011;1352;48.446;9.156;2022-12-07T10:22:56;6.70;;;5.40;;
2684;SDS011;1352;48.446;9.156;2022-12-07T10:25:33;5.53;;;4.67;;
2684;SDS011;1352;48.446;9.156;2022-12-07T10:28:13;7.27;;;5.07;;
2684;SDS011;1352;48.446;9.156;2022-12-07T10:30:53;4.30;;;3.90;;
2684;SDS011;1352;48.446;9.156;2022-12-07T10:33:33;5.47;;;4.80;;
2684;SDS011;1352;48.446;9.156;2022-12-07T10:36:24;7.80;;;5.53;;
2684;SDS011;1352;48.446;9.156;2022-12-07T10:39:11;6.13;;;5.53;;
2684;SDS011;1352;48.446;9.156;2022-12-07T10:41:54;5.70;;;4.70;;
2684;SDS011;1352;48.446;9.156;2022-12-07T10:44:33;8.83;;;5.50;;
2684;SDS011;1352;48.446;9.156;2022-12-07T10:47:13;7.97;;;6.43;;
2684;SDS011;1352;48.446;9.156;2022-12-07T10:59:50;6.40;;;4.40;;
2684;SDS011;1352;48.446;9.156;2022-12-07T11:02:53;10.50;;;5.73;;
2684;SDS011;1352;48.446;9.156;2022-12-07T11:05:42;9.20;;;5.80;;
2684;SDS011;1352;48.446;9.156;2022-12-07T11:08:41;9.97;;;5.27;;
2684;SDS011;1352;48.446;9.156;2022-12-07T11:11:26;6.27;;;5.47;;
2684;SDS011;1352;48.446;9.156;2022-12-07T11:14:25;6.40;;;5.70;;
2684;SDS011;1352;48.446;9.156;2022-12-07T11:17:05;6.87;;;5.30;;
2684;SDS011;1352;48.446;9.156;2022-12-07T11:19:49;6.93;;;5.67;;
2684;SDS011;1352;48.446;9.156;2022-12-07T11:22:28;5.97;;;5.37;;
2684;SDS011;1352;48.446;9.156;2022-12-07T11:25:16;7.70;;;6.00;;
2684;SDS011;1352;48.446;9.156;2022-12-07T11:28:06;6.53;;;5.37;;
2684;SDS011;1352;48.446;9.156;2022-12-07T11:31:17;8.13;;;6.13;;
2684;SDS011;1352;48.446;9.156;2022-12-07T11:34:10;10.33;;;5.97;;
2684;SDS011;1352;48.446;9.156;2022-12-07T11:36:57;6.43;;;5.77;;
2684;SDS011;1352;48.446;9.156;2022-12-07T11:39:44;9.60;;;5.67;;
2684;SDS011;1352;48.446;9.156;2022-12-07T11:42:27;9.83;;;7.40;;
2684;SDS011;1352;48.446;9.156;2022-12-07T11:45:10;7.90;;;7.10;;
2684;SDS011;1352;48.446;9.156;2022-12-07T11:47:58;11.60;;;6.23;;
2684;SDS011;1352;48.446;9.156;2022-12-07T11:50:52;7.93;;;5.83;;
2684;SDS011;1352;48.446;9.156;2022-12-07T11:53:51;8.23;;;6.17;;
2684;SDS011;1352;48.446;9.156;2022-12-07T11:56:38;9.47;;;7.03;;
2684;SDS011;1352;48.446;9.156;2022-12-07T11:59:21;9.00;;;6.23;;
2684;SDS011;1352;48.446;9.156;2022-12-07T12:02:11;10.47;;;7.67;;
2684;SDS011;1352;48.446;9.156;2022-12-07T12:04:58;6.93;;;5.60;;
2684;SDS011;1352;48.446;9.156;2022-12-07T12:07:49;8.57;;;6.77;;
2684;SDS011;1352;48.446;9.156;2022-12-07T12:10:51;6.23;;;5.30;;
2684;SDS011;1352;48.446;9.156;2022-12-07T12:17:01;9.53;;;6.40;;
2684;SDS011;1352;48.446;9.156;2022-12-07T12:19:55;10.83;;;5.93;;
2684;SDS011;1352;48.446;9.156;2022-12-07T12:22:39;8.70;;;4.80;;
2684;SDS011;1352;48.446;9.156;2022-12-07T12:25:17;8.63;;;5.80;;
2684;SDS011;1352;48.446;9.156;2022-12-07T12:27:50;9.03;;;6.23;;
2684;SDS011;1352;48.446;9.156;2022-12-07T12:30:39;6.23;;;4.83;;
2684;SDS011;1352;48.446;9.156;2022-12-07T12:33:13;6.10;;;5.50;;
2684;SDS011;1352;48.446;9.156;2022-12-07T12:39:14;7.30;;;6.60;;
2684;SDS011;1352;48.446;9.156;2022-12-07T12:42:00;10.27;;;6.00;;
2684;SDS011;1352;48.446;9.156;2022-12-07T12:47:56;7.93;;;5.00;;
2684;SDS011;1352;48.446;9.156;2022-12-07T12:50:47;5.70;;;4.77;;
2684;SDS011;1352;48.446;9.156;2022-12-07T12:53:35;5.40;;;4.37;;
2684;SDS011;1352;48.446;9.156;2022-12-07T12:59:25;6.30;;;4.70;;
2684;SDS011;1352;48.446;9.156;2022-12-07T13:02:00;5.00;;;4.53;;
2684;SDS011;1352;48.446;9.156;2022-12-07T13:04:52;9.53;;;4.87;;
2684;SDS011;1352;48.446;9.156;2022-12-07T13:10:32;6.70;;;4.50;;
2684;SDS011;1352;48.446;9.156;2022-12-07T13:13:33;5.90;;;5.30;;
2684;SDS011;1352;48.446;9.156;2022-12-07T13:22:53;7.47;;;5.60;;
2684;SDS011;1352;48.446;9.156;2022-12-07T13:25:40;6.50;;;5.17;;
2684;SDS011;1352;48.446;9.156;2022-12-07T13:28:22;8.50;;;5.60;;
2684;SDS011;1352;48.446;9.156;2022-12-07T13:31:11;5.97;;;5.20;;
2684;SDS011;1352;48.446;9.156;2022-12-07T13:37:04;6.07;;;4.50;;
2684;SDS011;1352;48.446;9.156;2022-12-07T13:39:52;5.80;;;4.70;;
2684;SDS011;1352;48.446;9.156;2022-12-07T13:42:26;6.03;;;4.60;;
2684;SDS011;1352;48.446;9.156;2022-12-07T13:44:59;7.47;;;5.73;;
2684;SDS011;1352;48.446;9.156;2022-12-07T13:47:49;8.77;;;5.27;;
2684;SDS011;1352;48.446;9.156;2022-12-07T13:50:25;5.97;;;5.37;;
2684;SDS011;1352;48.446;9.156;2022-12-07T13:53:13;6.10;;;4.50;;
2684;SDS011;1352;48.446;9.156;2022-12-07T13:56:12;8.60;;;5.80;;
2684;SDS011;1352;48.446;9.156;2022-12-07T13:58:56;6.07;;;4.30;;
2684;SDS011;1352;48.446;9.156;2022-12-07T14:01:42;7.03;;;4.80;;
2684;SDS011;1352;48.446;9.156;2022-12-07T14:04:37;8.30;;;5.50;;
2684;SDS011;1352;48.446;9.156;2022-12-07T14:10:05;14.33;;;6.03;;
2684;SDS011;1352;48.446;9.156;2022-12-07T14:12:56;7.27;;;5.40;;
2684;SDS011;1352;48.446;9.156;2022-12-07T14:15:25;8.07;;;5.60;;
2684;SDS011;1352;48.446;9.156;2022-12-07T14:17:56;6.30;;;5.13;;
2684;SDS011;1352;48.446;9.156;2022-12-07T14:20:39;6.40;;;5.23;;
2684;SDS011;1352;48.446;9.156;2022-12-07T14:23:26;7.00;;;5.70;;
2684;SDS011;1352;48.446;9.156;2022-12-07T14:26:14;8.40;;;5.20;;
2684;SDS011;1352;48.446;9.156;2022-12-07T14:31:59;8.20;;;4.90;;
2684;SDS011;1352;48.446;9.156;2022-12-07T14:34:57;5.67;;;4.80;;
2684;SDS011;1352;48.446;9.156;2022-12-07T14:37:30;7.87;;;5.37;;
2684;SDS011;1352;48.446;9.156;2022-12-07T14:40:03;6.83;;;5.30;;
2684;SDS011;1352;48.446;9.156;2022-12-07T14:42:39;7.50;;;5.37;;
2684;SDS011;1352;48.446;9.156;2022-12-07T14:45:19;9.23;;;5.40;;
2684;SDS011;1352;48.446;9.156;2022-12-07T14:47:48;6.90;;;4.70;;
2684;SDS011;1352;48.446;9.156;2022-12-07T14:50:24;7.80;;;5.67;;
2684;SDS011;1352;48.446;9.156;2022-12-07T14:53:17;6.80;;;4.93;;
2684;SDS011;1352;48.446;9.156;2022-12-07T14:55:58;8.33;;;5.87;;
2684;SDS011;1352;48.446;9.156;2022-12-07T14:58:27;11.13;;;5.83;;
2684;SDS011;1352;48.446;9.156;2022-12-07T15:00:57;6.03;;;5.10;;
2684;SDS011;1352;48.446;9.156;2022-12-07T15:03:25;9.17;;;6.07;;
2684;SDS011;1352;48.446;9.156;2022-12-07T15:05:58;7.47;;;5.57;;
2684;SDS011;1352;48.446;9.156;2022-12-07T15:08:37;6.10;;;4.53;;
2684;SDS011;1352;48.446;9.156;2022-12-07T15:11:18;6.70;;;4.93;;
2684;SDS011;1352;48.446;9.156;2022-12-07T15:14:00;6.73;;;5.00;;
2684;SDS011;1352;48.446;9.156;2022-12-07T15:16:52;6.60;;;4.63;;
2684;SDS011;1352;48.446;9.156;2022-12-07T15:19:38;6.57;;;4.77;;
2684;SDS011;1352;48.446;9.156;2022-12-07T15:22:06;7.03;;;4.90;;
2684;SDS011;1352;48.446;9.156;2022-12-07T15:24:36;8.80;;;6.27;;
2684;SDS011;1352;48.446;9.156;2022-12-07T15:27:07;7.10;;;5.37;;
2684;SDS011;1352;48.446;9.156;2022-12-07T15:29:34;10.00;;;5.90;;
2684;SDS011;1352;48.446;9.156;2022-12-07T15:32:07;5.97;;;5.30;;
2684;SDS011;1352;48.446;9.156;2022-12-07T15:34:34;8.00;;;5.33;;
2684;SDS011;1352;48.446;9.156;2022-12-07T15:37:04;8.20;;;5.80;;
2684;SDS011;1352;48.446;9.156;2022-12-07T15:39:32;9.40;;;6.70;;
2684;SDS011;1352;48.446;9.156;2022-12-07T15:42:00;10.30;;;5.73;;
2684;SDS011;1352;48.446;9.156;2022-12-07T15:44:28;9.37;;;6.10;;
2684;SDS011;1352;48.446;9.156;2022-12-07T15:47:14;6.63;;;5.67;;
2684;SDS011;1352;48.446;9.156;2022-12-07T15:49:56;7.73;;;5.60;;
2684;SDS011;1352;48.446;9.156;2022-12-07T15:52:28;10.47;;;6.73;;
2684;SDS011;1352;48.446;9.156;2022-12-07T15:54:59;10.47;;;6.93;;
2684;SDS011;1352;48.446;9.156;2022-12-07T15:57:33;8.27;;;5.83;;
2684;SDS011;1352;48.446;9.156;2022-12-07T16:00:07;6.93;;;6.20;;
2684;SDS011;1352;48.446;9.156;2022-12-07T16:02:56;10.83;;;7.80;;
2684;SDS011;1352;48.446;9.156;2022-12-07T16:05:38;11.53;;;7.70;;
2684;SDS011;1352;48.446;9.156;2022-12-07T16:08:23;9.03;;;6.90;;
2684;SDS011;1352;48.446;9.156;2022-12-07T16:10:55;9.73;;;7.20;;
2684;SDS011;1352;48.446;9.156;2022-12-07T16:13:26;12.50;;;7.30;;
2684;SDS011;1352;48.446;9.156;2022-12-07T16:15:53;11.20;;;7.77;;
2684;SDS011;1352;48.446;9.156;2022-12-07T16:18:26;8.90;;;7.73;;
2684;SDS011;1352;48.446;9.156;2022-12-07T16:20:54;11.23;;;8.60;;
2684;SDS011;1352;48.446;9.156;2022-12-07T16:23:32;10.77;;;8.40;;
2684;SDS011;1352;48.446;9.156;2022-12-07T16:26:22;10.13;;;8.40;;
2684;SDS011;1352;48.446;9.156;2022-12-07T16:28:56;11.43;;;9.33;;
2684;SDS011;1352;48.446;9.156;2022-12-07T16:31:38;12.50;;;9.90;;
2684;SDS011;1352;48.446;9.156;2022-12-07T16:34:12;15.10;;;10.00;;
2684;SDS011;1352;48.446;9.156;2022-12-07T16:36:52;9.83;;;8.50;;
2684;SDS011;1352;48.446;9.156;2022-12-07T16:39:31;11.30;;;8.30;;
2684;SDS011;1352;48.446;9.156;2022-12-07T16:42:04;11.33;;;8.50;;
2684;SDS011;1352;48.446;9.156;2022-12-07T16:44:59;10.03;;;8.80;;
2684;SDS011;1352;48.446;9.156;2022-12-07T16:47:37;9.97;;;8.93;;